createdAt,value
2023-12-23T00:01:55.415Z,16.01
2023-12-23T00:04:21.726Z,15.99
2023-12-23T00:06:50.992Z,15.93
2023-12-23T00:09:17.229Z,15.90
2023-12-23T00:11:43.499Z,15.86
2023-12-23T00:14:09.903Z,15.83
2023-12-23T00:16:36.233Z,15.77
2023-12-23T00:19:02.756Z,15.75
2023-12-23T00:21:32.223Z,15.70
2023-12-23T00:23:58.571Z,15.67
2023-12-23T00:26:24.835Z,15.63
2023-12-23T00:28:51.207Z,15.59
2023-12-23T00:31:17.509Z,15.56
2023-12-23T00:33:43.820Z,15.54
2023-12-23T00:36:10.067Z,15.51
2023-12-23T00:38:36.288Z,15.47
2023-12-23T00:41:02.579Z,15.44
2023-12-23T00:43:28.856Z,15.41
2023-12-23T00:45:55.210Z,15.37
2023-12-23T00:48:21.617Z,15.33
2023-12-23T00:50:47.933Z,15.30
2023-12-23T00:53:14.351Z,15.29
2023-12-23T00:55:40.785Z,15.26
2023-12-23T00:58:07.010Z,15.23
2023-12-23T01:00:33.362Z,15.20
2023-12-23T01:02:59.636Z,15.18
2023-12-23T01:05:25.934Z,15.14
2023-12-23T01:07:52.510Z,15.11
2023-12-23T01:10:18.927Z,15.10
2023-12-23T01:12:45.223Z,15.08
2023-12-23T01:15:11.460Z,15.05
2023-12-23T01:17:37.769Z,15.03
2023-12-23T01:20:04.117Z,15.00
2023-12-23T01:22:30.382Z,14.97
2023-12-23T01:24:56.656Z,14.96
2023-12-23T01:27:22.919Z,14.93
2023-12-23T01:29:49.180Z,14.91
2023-12-23T01:32:15.542Z,14.88
2023-12-23T01:34:41.856Z,14.86
2023-12-23T01:37:08.152Z,14.84
2023-12-23T01:39:34.389Z,14.82
2023-12-23T01:42:00.631Z,14.80
2023-12-23T01:44:26.948Z,14.77
2023-12-23T01:46:53.323Z,14.76
2023-12-23T01:49:19.750Z,14.75
2023-12-23T01:51:45.998Z,14.72
2023-12-23T01:54:12.253Z,14.71
2023-12-23T01:56:38.475Z,14.70
2023-12-23T01:59:05.002Z,14.67
2023-12-23T02:01:31.331Z,14.65
2023-12-23T02:03:57.718Z,14.64
2023-12-23T02:06:24.008Z,14.61
2023-12-23T02:08:50.331Z,14.59
2023-12-23T02:11:16.585Z,14.56
2023-12-23T02:13:43.310Z,14.55
2023-12-23T02:16:09.598Z,14.54
2023-12-23T02:18:35.891Z,14.52
2023-12-23T02:21:02.355Z,14.41
2023-12-23T02:23:28.608Z,14.48
2023-12-23T02:25:54.952Z,14.48
2023-12-23T02:28:21.219Z,14.44
2023-12-23T02:30:47.465Z,14.43
2023-12-23T02:33:13.896Z,14.41
2023-12-23T02:35:40.188Z,14.39
2023-12-23T02:38:06.477Z,14.37
2023-12-23T02:40:32.781Z,14.36
2023-12-23T02:42:59.027Z,14.36
2023-12-23T02:45:25.298Z,14.34
2023-12-23T02:47:51.625Z,14.32
2023-12-23T02:50:18.021Z,14.31
2023-12-23T02:52:44.392Z,14.30
2023-12-23T02:55:10.664Z,14.28
2023-12-23T02:57:36.913Z,14.25
2023-12-23T03:00:03.238Z,14.24
2023-12-23T03:02:29.524Z,14.24
2023-12-23T03:04:55.829Z,14.21
2023-12-23T03:07:22.141Z,14.20
2023-12-23T03:09:48.391Z,14.18
2023-12-23T03:12:14.635Z,14.17
2023-12-23T03:14:40.890Z,14.15
2023-12-23T03:17:07.191Z,14.13
2023-12-23T03:19:33.490Z,14.12
2023-12-23T03:21:59.746Z,14.11
2023-12-23T03:24:26.034Z,14.08
2023-12-23T03:26:52.330Z,14.06
2023-12-23T03:29:18.596Z,14.05
2023-12-23T03:31:44.897Z,14.04
2023-12-23T03:34:11.232Z,14.04
2023-12-23T03:36:37.479Z,14.03
2023-12-23T03:39:03.703Z,14.02
2023-12-23T03:41:29.984Z,14.02
2023-12-23T03:43:56.361Z,14.02
2023-12-23T03:46:22.626Z,14.01
2023-12-23T03:48:48.921Z,14.00
2023-12-23T03:51:15.296Z,14.00
2023-12-23T03:53:41.565Z,13.99
2023-12-23T03:56:07.867Z,13.97
2023-12-23T03:58:34.185Z,13.95
2023-12-23T04:01:00.535Z,13.95
2023-12-23T04:03:26.756Z,13.94
2023-12-23T04:05:53.144Z,13.93
2023-12-23T04:08:19.444Z,13.91
2023-12-23T04:10:45.782Z,13.92
2023-12-23T04:13:12.159Z,13.91
2023-12-23T04:15:38.385Z,13.90
2023-12-23T04:18:04.699Z,13.90
2023-12-23T04:20:30.980Z,13.89
2023-12-23T04:22:57.253Z,13.90
2023-12-23T04:25:23.743Z,13.89
2023-12-23T04:27:49.974Z,13.88
2023-12-23T04:30:16.252Z,13.87
2023-12-23T04:32:42.776Z,13.86
2023-12-23T04:35:09.134Z,13.85
2023-12-23T04:37:35.400Z,13.84
2023-12-23T04:40:01.634Z,13.84
2023-12-23T04:42:27.904Z,13.82
2023-12-23T04:44:54.156Z,13.82
2023-12-23T04:47:20.471Z,13.82
2023-12-23T04:49:46.821Z,13.82
2023-12-23T04:52:13.138Z,13.81
2023-12-23T04:54:39.465Z,13.80
2023-12-23T04:57:05.817Z,13.79
2023-12-23T04:59:32.225Z,13.77
2023-12-23T05:01:58.514Z,13.78
2023-12-23T05:04:24.879Z,13.76
2023-12-23T05:06:51.143Z,13.76
2023-12-23T05:09:17.371Z,13.75
2023-12-23T05:11:43.598Z,13.75
2023-12-23T05:14:09.911Z,13.75
2023-12-23T05:16:39.375Z,13.73
2023-12-23T05:19:05.790Z,13.73
2023-12-23T05:21:32.075Z,13.71
2023-12-23T05:23:58.327Z,13.71
2023-12-23T05:26:24.667Z,13.70
2023-12-23T05:28:50.956Z,13.70
2023-12-23T05:31:17.276Z,13.68
2023-12-23T05:33:43.603Z,13.70
2023-12-23T05:36:09.943Z,13.69
2023-12-23T05:38:36.196Z,13.68
2023-12-23T05:41:02.462Z,13.67
2023-12-23T05:43:28.748Z,13.67
2023-12-23T05:45:55.009Z,13.65
2023-12-23T05:48:21.380Z,13.65
2023-12-23T05:50:47.766Z,13.63
2023-12-23T05:53:14.030Z,13.62
2023-12-23T05:55:40.434Z,13.61
2023-12-23T05:58:06.729Z,13.58
2023-12-23T06:00:33.078Z,13.57
2023-12-23T06:02:59.309Z,13.56
2023-12-23T06:05:25.720Z,13.54
2023-12-23T06:07:52.171Z,13.52
2023-12-23T06:10:18.496Z,13.50
2023-12-23T06:12:44.744Z,13.47
2023-12-23T06:15:11.024Z,13.46
2023-12-23T06:17:37.347Z,13.43
2023-12-23T06:20:03.582Z,13.41
2023-12-23T06:22:29.844Z,13.38
2023-12-23T06:24:56.086Z,13.37
2023-12-23T06:27:22.351Z,13.35
2023-12-23T06:29:48.663Z,13.33
2023-12-23T06:32:15.026Z,13.30
2023-12-23T06:34:41.384Z,13.28
2023-12-23T06:37:07.668Z,13.27
2023-12-23T06:39:33.967Z,13.26
2023-12-23T06:42:00.207Z,13.25
2023-12-23T06:44:26.506Z,13.23
2023-12-23T06:46:52.812Z,13.20
2023-12-23T06:49:19.202Z,13.19
2023-12-23T06:51:45.567Z,13.17
2023-12-23T06:54:11.873Z,13.14
2023-12-23T06:56:38.099Z,13.13
2023-12-23T06:59:04.410Z,13.11
2023-12-23T07:01:30.670Z,13.09
2023-12-23T07:03:56.898Z,13.07
2023-12-23T07:06:23.154Z,13.05
2023-12-23T07:08:49.418Z,13.03
2023-12-23T07:11:16.878Z,13.01
2023-12-23T07:13:43.186Z,12.99
2023-12-23T07:16:09.447Z,12.98
2023-12-23T07:18:35.771Z,12.98
2023-12-23T07:21:02.237Z,12.96
2023-12-23T07:23:28.478Z,12.94
2023-12-23T07:25:54.750Z,12.93
2023-12-23T07:28:21.158Z,12.92
2023-12-23T07:30:47.418Z,12.92
2023-12-23T07:33:13.822Z,12.90
2023-12-23T07:35:40.225Z,12.89
2023-12-23T07:38:06.495Z,12.87
2023-12-23T07:40:36.188Z,12.85
2023-12-23T07:43:02.601Z,12.84
2023-12-23T07:45:28.837Z,12.83
2023-12-23T07:47:55.112Z,12.81
2023-12-23T07:50:21.431Z,12.78
2023-12-23T07:52:47.967Z,12.77
2023-12-23T07:55:14.384Z,12.75
2023-12-23T07:57:40.694Z,12.73
2023-12-23T08:00:06.954Z,12.72
2023-12-23T08:02:33.250Z,12.72
2023-12-23T08:04:59.611Z,12.71
2023-12-23T08:07:25.917Z,12.70
2023-12-23T08:09:52.148Z,12.75
2023-12-23T08:12:18.422Z,12.97
2023-12-23T08:14:44.765Z,13.30
2023-12-23T08:17:11.073Z,13.61
2023-12-23T08:19:37.380Z,13.85
2023-12-23T08:22:03.660Z,14.06
2023-12-23T08:24:29.928Z,14.25
2023-12-23T08:26:56.191Z,14.40
2023-12-23T08:29:22.458Z,14.53
2023-12-23T08:31:48.762Z,14.65
2023-12-23T08:34:15.073Z,14.73
2023-12-23T08:36:41.351Z,14.82
2023-12-23T08:39:07.583Z,14.89
2023-12-23T08:41:33.791Z,14.93
2023-12-23T08:44:00.106Z,14.99
2023-12-23T08:46:26.412Z,15.05
2023-12-23T08:48:52.813Z,15.10
2023-12-23T08:51:19.312Z,15.15
2023-12-23T08:53:45.670Z,15.20
2023-12-23T08:56:11.995Z,15.26
2023-12-23T08:58:38.867Z,15.28
2023-12-23T09:01:05.194Z,15.32
2023-12-23T09:03:31.554Z,15.36
2023-12-23T09:05:57.936Z,15.40
2023-12-23T09:08:24.451Z,15.44
2023-12-23T09:10:50.875Z,15.47
2023-12-23T09:13:17.198Z,15.50
2023-12-23T09:15:43.452Z,15.51
2023-12-23T09:18:09.951Z,15.53
2023-12-23T09:20:36.269Z,15.55
2023-12-23T09:23:03.812Z,15.58
2023-12-23T09:25:30.148Z,15.62
2023-12-23T09:27:56.400Z,15.66
2023-12-23T09:30:23.784Z,15.69
2023-12-23T09:32:50.135Z,15.73
2023-12-23T09:35:16.552Z,15.74
2023-12-23T09:37:42.878Z,15.76
2023-12-23T09:40:09.167Z,15.78
2023-12-23T09:42:35.447Z,15.79
2023-12-23T09:45:01.785Z,15.84
2023-12-23T09:47:28.266Z,15.86
2023-12-23T09:49:54.836Z,15.89
2023-12-23T09:52:21.155Z,15.91
2023-12-23T09:54:47.421Z,15.93
2023-12-23T09:57:13.705Z,15.98
2023-12-23T09:59:39.967Z,16.00
2023-12-23T10:02:06.427Z,16.02
2023-12-23T10:04:32.738Z,16.05
2023-12-23T10:06:59.089Z,16.07
2023-12-23T10:09:25.325Z,16.08
2023-12-23T10:11:51.602Z,16.04
2023-12-23T10:14:17.861Z,16.04
2023-12-23T10:16:46.213Z,16.05
2023-12-23T10:19:14.090Z,16.09
2023-12-23T10:21:40.387Z,16.12
2023-12-23T10:24:06.694Z,16.16
2023-12-23T10:26:32.938Z,16.18
2023-12-23T10:28:59.218Z,16.20
2023-12-23T10:31:25.466Z,16.21
2023-12-23T10:33:51.759Z,16.23
2023-12-23T10:36:18.117Z,16.24
2023-12-23T10:38:44.367Z,16.26
2023-12-23T10:41:10.801Z,16.27
2023-12-23T10:43:37.079Z,16.28
2023-12-23T10:46:03.349Z,16.28
2023-12-23T10:48:32.686Z,16.29
2023-12-23T10:51:01.289Z,16.29
2023-12-23T10:53:28.022Z,16.31
2023-12-23T10:55:54.469Z,16.31
2023-12-23T10:58:20.768Z,16.32
2023-12-23T11:00:47.054Z,16.32
2023-12-23T11:03:13.427Z,16.34
2023-12-23T11:05:39.738Z,16.36
2023-12-23T11:08:10.543Z,16.38
2023-12-23T11:10:43.198Z,16.40
2023-12-23T11:13:10.242Z,16.43
2023-12-23T11:15:36.639Z,16.45
2023-12-23T11:18:04.913Z,16.47
2023-12-23T11:20:32.657Z,16.49
2023-12-23T11:22:58.975Z,16.51
2023-12-23T11:25:25.369Z,16.52
2023-12-23T11:27:51.623Z,16.54
2023-12-23T11:30:22.839Z,16.56
2023-12-23T11:32:49.428Z,16.58
2023-12-23T11:35:15.846Z,16.60
2023-12-23T11:37:42.126Z,16.61
2023-12-23T11:40:08.364Z,16.62
2023-12-23T11:42:34.645Z,16.63
2023-12-23T11:45:00.904Z,16.63
2023-12-23T11:47:27.255Z,16.63
2023-12-23T11:49:55.693Z,16.63
2023-12-23T11:52:21.995Z,16.63
2023-12-23T11:54:48.273Z,16.63
2023-12-23T11:57:16.170Z,16.63
2023-12-23T11:59:42.467Z,16.63
2023-12-23T12:02:08.725Z,16.63
2023-12-23T12:04:35.007Z,16.64
2023-12-23T12:07:01.305Z,16.64
2023-12-23T12:09:27.626Z,16.63
2023-12-23T12:11:57.019Z,16.63
2023-12-23T12:14:23.319Z,16.65
2023-12-23T12:16:49.658Z,16.64
2023-12-23T12:19:16.002Z,16.66
2023-12-23T12:21:42.351Z,16.67
2023-12-23T12:24:08.610Z,16.69
2023-12-23T12:26:34.924Z,16.70
2023-12-23T12:29:01.213Z,16.73
2023-12-23T12:31:27.515Z,16.76
2023-12-23T12:33:53.850Z,16.78
2023-12-23T12:36:20.148Z,16.80
2023-12-23T12:38:46.422Z,16.83
2023-12-23T12:41:12.771Z,16.85
2023-12-23T12:43:39.088Z,16.87
2023-12-23T12:46:05.327Z,16.90
2023-12-23T12:48:31.759Z,16.92
2023-12-23T12:50:58.079Z,16.93
2023-12-23T12:53:24.727Z,16.96
2023-12-23T12:55:51.042Z,16.97
2023-12-23T12:58:17.301Z,16.97
2023-12-23T13:00:43.560Z,16.97
2023-12-23T13:03:09.899Z,16.98
2023-12-23T13:05:36.335Z,16.99
2023-12-23T13:08:02.753Z,16.99
2023-12-23T13:10:29.013Z,16.98
2023-12-23T13:12:55.301Z,17.00
2023-12-23T13:15:21.565Z,16.99
2023-12-23T13:17:47.943Z,16.99
2023-12-23T13:20:14.319Z,16.98
2023-12-23T13:22:40.701Z,16.98
2023-12-23T13:25:06.913Z,16.98
2023-12-23T13:27:33.278Z,16.97
2023-12-23T13:29:59.545Z,16.97
2023-12-23T13:32:25.986Z,16.96
2023-12-23T13:34:52.388Z,16.96
2023-12-23T13:37:18.662Z,16.94
2023-12-23T13:39:44.972Z,16.92
2023-12-23T13:42:11.206Z,16.92
2023-12-23T13:44:37.471Z,16.92
2023-12-23T13:47:03.801Z,16.93
2023-12-23T13:49:30.249Z,16.91
2023-12-23T13:51:56.559Z,16.90
2023-12-23T13:54:25.606Z,16.92
2023-12-23T13:56:51.887Z,16.91
2023-12-23T13:59:19.284Z,16.92
2023-12-23T14:01:45.603Z,16.92
2023-12-23T14:04:11.919Z,16.93
2023-12-23T14:06:38.293Z,16.94
2023-12-23T14:09:04.666Z,16.94
2023-12-23T14:11:31.002Z,16.95
2023-12-23T14:13:57.329Z,16.95
2023-12-23T14:16:23.602Z,16.97
2023-12-23T14:18:49.866Z,16.97
2023-12-23T14:21:16.166Z,16.96
2023-12-23T14:23:42.460Z,16.98
2023-12-23T14:26:08.881Z,16.97
2023-12-23T14:28:35.201Z,16.99
2023-12-23T14:31:01.511Z,16.98
2023-12-23T14:33:27.819Z,16.97
2023-12-23T14:35:54.356Z,16.97
2023-12-23T14:38:21.210Z,16.97
2023-12-23T14:40:47.551Z,16.98
2023-12-23T14:43:13.849Z,16.98
2023-12-23T14:45:40.113Z,16.97
2023-12-23T14:48:06.412Z,16.98
2023-12-23T14:50:32.763Z,16.97
2023-12-23T14:52:59.104Z,16.97
2023-12-23T14:55:25.422Z,16.96
2023-12-23T14:57:51.664Z,16.97
2023-12-23T15:00:17.917Z,16.97
2023-12-23T15:02:44.157Z,16.97
2023-12-23T15:05:10.531Z,16.96
2023-12-23T15:07:36.866Z,16.95
2023-12-23T15:10:03.122Z,16.94
2023-12-23T15:12:29.343Z,16.95
2023-12-23T15:14:55.652Z,16.95
2023-12-23T15:17:21.947Z,16.94
2023-12-23T15:19:48.251Z,16.94
2023-12-23T15:22:14.538Z,16.94
2023-12-23T15:24:40.824Z,16.95
2023-12-23T15:27:07.087Z,16.97
2023-12-23T15:29:34.454Z,16.99
2023-12-23T15:32:00.759Z,17.02
2023-12-23T15:34:27.127Z,17.04
2023-12-23T15:36:56.726Z,17.06
2023-12-23T15:39:23.599Z,17.09
2023-12-23T15:41:49.860Z,17.11
2023-12-23T15:44:16.179Z,17.14
2023-12-23T15:46:42.419Z,17.16
2023-12-23T15:49:08.714Z,17.17
2023-12-23T15:51:35.035Z,17.18
2023-12-23T15:54:01.435Z,17.18
2023-12-23T15:56:27.887Z,17.19
2023-12-23T15:58:54.167Z,17.18
2023-12-23T16:01:20.434Z,17.19
2023-12-23T16:03:46.721Z,17.19
2023-12-23T16:06:13.064Z,17.19
2023-12-23T16:08:39.412Z,17.20
2023-12-23T16:11:05.795Z,17.19
2023-12-23T16:13:32.087Z,17.20
2023-12-23T16:15:58.498Z,17.20
2023-12-23T16:18:24.991Z,17.22
2023-12-23T16:20:51.240Z,17.23
2023-12-23T16:23:17.528Z,17.25
2023-12-23T16:25:43.820Z,17.26
2023-12-23T16:28:10.096Z,17.27
2023-12-23T16:30:36.418Z,17.29
2023-12-23T16:33:02.799Z,17.30
2023-12-23T16:35:29.253Z,17.31
2023-12-23T16:37:55.576Z,17.32
2023-12-23T16:40:22.077Z,17.32
2023-12-23T16:42:48.351Z,17.34
2023-12-23T16:45:14.604Z,17.34
2023-12-23T16:47:40.990Z,17.34
2023-12-23T16:50:07.487Z,17.35
2023-12-23T16:52:33.733Z,17.35
2023-12-23T16:55:00.014Z,17.36
2023-12-23T16:57:26.259Z,17.36
2023-12-23T16:59:52.528Z,17.36
2023-12-23T17:02:19.493Z,17.35
2023-12-23T17:04:46.492Z,17.37
2023-12-23T17:07:12.762Z,17.36
2023-12-23T17:09:38.991Z,17.36
2023-12-23T17:12:05.344Z,17.37
2023-12-23T17:14:31.737Z,17.37
2023-12-23T17:16:58.015Z,17.37
2023-12-23T17:19:24.364Z,17.39
2023-12-23T17:21:50.677Z,17.40
2023-12-23T17:24:16.962Z,17.41
2023-12-23T17:26:43.267Z,17.42
2023-12-23T17:29:09.622Z,17.42
2023-12-23T17:31:35.886Z,17.44
2023-12-23T17:34:02.212Z,17.44
2023-12-23T17:36:28.539Z,17.46
2023-12-23T17:38:54.826Z,17.46
2023-12-23T17:41:21.752Z,17.47
2023-12-23T17:43:48.142Z,17.49
2023-12-23T17:46:14.485Z,17.50
2023-12-23T17:48:40.742Z,17.51
2023-12-23T17:51:07.150Z,17.53
2023-12-23T17:53:33.407Z,17.55
2023-12-23T17:55:59.746Z,17.55
2023-12-23T17:58:26.066Z,17.56
2023-12-23T18:00:52.460Z,17.57
2023-12-23T18:03:19.042Z,17.58
2023-12-23T18:05:45.685Z,17.60
2023-12-23T18:08:12.182Z,17.61
2023-12-23T18:10:41.514Z,17.62
2023-12-23T18:13:07.743Z,17.62
2023-12-23T18:15:34.025Z,17.65
2023-12-23T18:18:00.288Z,17.65
2023-12-23T18:20:26.641Z,17.66
2023-12-23T18:22:53.427Z,17.67
2023-12-23T18:25:19.942Z,17.68
2023-12-23T18:27:46.193Z,17.68
2023-12-23T18:30:12.502Z,17.69
2023-12-23T18:32:38.967Z,17.70
2023-12-23T18:35:05.424Z,17.71
2023-12-23T18:37:31.782Z,17.72
2023-12-23T18:39:58.061Z,17.72
2023-12-23T18:42:24.315Z,17.74
2023-12-23T18:44:50.559Z,17.75
2023-12-23T18:47:16.885Z,17.74
2023-12-23T18:49:43.167Z,17.76
2023-12-23T18:52:09.420Z,17.77
2023-12-23T18:54:35.777Z,17.76
2023-12-23T18:57:02.070Z,17.78
2023-12-23T18:59:28.391Z,17.78
2023-12-23T19:01:54.807Z,17.79
2023-12-23T19:04:21.140Z,17.79
2023-12-23T19:06:47.461Z,17.81
2023-12-23T19:09:13.694Z,17.83
2023-12-23T19:11:39.928Z,17.84
2023-12-23T19:14:06.228Z,17.86
2023-12-23T19:16:32.507Z,17.87
2023-12-23T19:18:58.839Z,17.90
2023-12-23T19:21:25.171Z,17.92
2023-12-23T19:23:51.544Z,17.93
2023-12-23T19:26:20.529Z,17.94
2023-12-23T19:28:47.324Z,17.96
2023-12-23T19:31:13.587Z,17.96
2023-12-23T19:33:39.935Z,17.98
2023-12-23T19:36:06.234Z,18.02
2023-12-23T19:38:32.530Z,18.02
2023-12-23T19:40:58.795Z,18.02
2023-12-23T19:43:25.154Z,18.03
2023-12-23T19:45:51.398Z,18.03
2023-12-23T19:48:17.762Z,18.04
2023-12-23T19:50:44.077Z,18.06
2023-12-23T19:53:10.417Z,18.06
2023-12-23T19:55:36.679Z,18.08
2023-12-23T19:58:02.944Z,18.09
2023-12-23T20:00:29.334Z,18.10
2023-12-23T20:02:55.583Z,18.12
2023-12-23T20:05:21.903Z,18.12
2023-12-23T20:07:48.208Z,18.14
2023-12-23T20:10:14.489Z,18.15
2023-12-23T20:12:40.739Z,18.16
2023-12-23T20:15:07.018Z,18.18
2023-12-23T20:17:33.582Z,18.19
2023-12-23T20:19:59.973Z,18.21
2023-12-23T20:22:26.281Z,18.23
2023-12-23T20:24:52.552Z,18.23
2023-12-23T20:27:18.840Z,18.25
2023-12-23T20:29:45.145Z,18.28
2023-12-23T20:32:14.577Z,18.28
2023-12-23T20:34:40.881Z,18.28
2023-12-23T20:37:07.131Z,18.29
2023-12-23T20:39:33.438Z,18.29
2023-12-23T20:41:59.788Z,18.29
2023-12-23T20:44:26.197Z,18.28
2023-12-23T20:46:52.644Z,18.28
2023-12-23T20:49:19.207Z,18.29
2023-12-23T20:51:45.548Z,18.29
2023-12-23T20:54:11.849Z,18.28
2023-12-23T20:56:38.229Z,18.27
2023-12-23T20:59:05.027Z,18.27
2023-12-23T21:01:31.696Z,18.27
2023-12-23T21:03:58.072Z,18.27
2023-12-23T21:06:24.409Z,18.26
2023-12-23T21:08:50.723Z,18.25
2023-12-23T21:11:18.371Z,18.26
2023-12-23T21:13:44.781Z,18.26
2023-12-23T21:16:11.207Z,18.24
2023-12-23T21:18:37.522Z,18.24
2023-12-23T21:21:03.839Z,18.25
2023-12-23T21:23:30.136Z,18.26
2023-12-23T21:25:56.445Z,18.27
2023-12-23T21:28:22.705Z,18.28
2023-12-23T21:30:49.235Z,18.30
2023-12-23T21:33:15.613Z,18.33
2023-12-23T21:35:41.998Z,18.36
2023-12-23T21:38:08.365Z,18.38
2023-12-23T21:40:34.746Z,18.40
2023-12-23T21:43:00.974Z,18.41
2023-12-23T21:45:27.204Z,18.42
2023-12-23T21:47:56.111Z,18.42
2023-12-23T21:50:23.327Z,18.44
2023-12-23T21:52:49.898Z,18.43
2023-12-23T21:55:16.288Z,18.42
2023-12-23T21:57:42.602Z,18.43
2023-12-23T22:00:08.878Z,18.42
2023-12-23T22:02:36.835Z,18.42
2023-12-23T22:05:04.325Z,18.40
2023-12-23T22:07:30.624Z,18.40
2023-12-23T22:09:56.921Z,18.39
2023-12-23T22:12:23.208Z,18.38
2023-12-23T22:14:49.545Z,18.37
2023-12-23T22:17:15.808Z,18.37
2023-12-23T22:19:42.134Z,18.34
2023-12-23T22:22:08.416Z,18.33
2023-12-23T22:24:34.624Z,18.32
2023-12-23T22:27:00.862Z,18.31
2023-12-23T22:29:27.181Z,18.31
2023-12-23T22:31:53.498Z,18.29
2023-12-23T22:34:19.797Z,18.28
2023-12-23T22:36:46.081Z,18.26
2023-12-23T22:39:12.331Z,18.26
2023-12-23T22:41:38.677Z,18.24
2023-12-23T22:44:04.991Z,18.23
2023-12-23T22:46:31.230Z,18.22
2023-12-23T22:48:57.512Z,18.20
2023-12-23T22:51:23.778Z,18.21
2023-12-23T22:53:50.018Z,18.19
2023-12-23T22:56:16.333Z,18.18
2023-12-23T22:58:42.608Z,18.17
2023-12-23T23:01:08.906Z,18.16
2023-12-23T23:03:38.248Z,18.16
2023-12-23T23:06:04.634Z,18.14
2023-12-23T23:08:31.013Z,18.13
2023-12-23T23:10:57.306Z,18.12
2023-12-23T23:13:23.585Z,18.11
2023-12-23T23:15:49.811Z,18.10
2023-12-23T23:18:16.272Z,18.09
2023-12-23T23:20:42.645Z,18.09
2023-12-23T23:23:08.951Z,18.07
2023-12-23T23:25:35.236Z,18.07
2023-12-23T23:28:01.586Z,18.06
2023-12-23T23:30:27.866Z,18.06
2023-12-23T23:32:54.305Z,18.04
2023-12-23T23:35:20.769Z,18.03
2023-12-23T23:37:47.023Z,18.03
2023-12-23T23:40:13.414Z,18.02
2023-12-23T23:42:39.741Z,18.01
2023-12-23T23:45:06.034Z,17.98
2023-12-23T23:47:32.429Z,17.98
2023-12-23T23:49:58.889Z,17.97
2023-12-23T23:52:25.343Z,17.95
2023-12-23T23:54:51.626Z,17.89
2023-12-23T23:57:18.059Z,17.82
2023-12-23T23:59:44.387Z,17.74
